createdAt,value
2018-03-20T00:07:38.557Z,16.27
2018-03-20T00:10:05.502Z,13.30
2018-03-20T00:12:32.538Z,14.18
2018-03-20T00:14:59.337Z,13.40
2018-03-20T00:17:26.259Z,13.35
2018-03-20T00:19:53.798Z,16.40
2018-03-20T00:22:20.741Z,12.40
2018-03-20T00:24:47.577Z,13.95
2018-03-20T00:27:14.452Z,14.35
2018-03-20T00:29:41.234Z,12.73
2018-03-20T00:32:08.994Z,13.48
2018-03-20T00:34:35.855Z,10.35
2018-03-20T00:37:02.727Z,13.57
2018-03-20T00:39:29.601Z,14.50
2018-03-20T00:41:56.456Z,15.00
2018-03-20T00:44:24.125Z,16.35
2018-03-20T00:46:50.914Z,17.65
2018-03-20T00:49:17.744Z,17.52
2018-03-20T00:51:45.019Z,12.02
2018-03-20T00:54:11.951Z,12.25
2018-03-20T00:56:38.887Z,14.02
2018-03-20T00:59:05.702Z,17.35
2018-03-20T01:01:32.548Z,13.73
2018-03-20T01:03:59.352Z,16.90
2018-03-20T01:06:26.209Z,15.90
2018-03-20T01:08:53.049Z,15.85
2018-03-20T01:11:19.908Z,14.70
2018-03-20T01:13:46.757Z,14.45
2018-03-20T01:16:15.014Z,13.05
2018-03-20T01:18:41.828Z,12.85
2018-03-20T01:21:09.309Z,12.15
2018-03-20T01:23:36.789Z,13.60
2018-03-20T01:26:04.318Z,18.95
2018-03-20T01:28:31.088Z,14.60
2018-03-20T01:30:57.910Z,13.40
2018-03-20T01:33:25.410Z,17.50
2018-03-20T01:35:52.217Z,16.83
2018-03-20T01:38:18.997Z,18.70
2018-03-20T01:40:46.615Z,14.63
2018-03-20T01:43:13.484Z,12.90
2018-03-20T01:45:40.361Z,11.27
2018-03-20T01:48:07.174Z,12.93
2018-03-20T01:50:34.036Z,11.45
2018-03-20T01:53:17.950Z,15.23
2018-03-20T01:55:45.774Z,20.48
2018-03-20T01:58:12.578Z,16.05
2018-03-20T02:00:39.445Z,14.50
2018-03-20T02:03:07.032Z,13.07
2018-03-20T02:05:33.899Z,13.73
2018-03-20T02:08:00.724Z,14.52
2018-03-20T02:10:28.301Z,12.60
2018-03-20T02:12:56.006Z,16.75
2018-03-20T02:15:22.858Z,19.23
2018-03-20T02:17:49.651Z,18.92
2018-03-20T02:20:16.507Z,14.48
2018-03-20T02:22:44.101Z,15.63
2018-03-20T02:25:10.980Z,16.00
2018-03-20T02:27:37.859Z,15.07
2018-03-20T02:30:04.781Z,17.50
2018-03-20T02:32:31.647Z,15.25
2018-03-20T02:34:58.493Z,16.17
2018-03-20T02:37:25.395Z,15.10
2018-03-20T02:39:52.709Z,13.65
2018-03-20T02:42:19.515Z,11.30
2018-03-20T02:44:46.239Z,16.02
2018-03-20T02:47:13.095Z,16.02
2018-03-20T02:49:40.836Z,17.90
2018-03-20T02:52:07.611Z,12.35
2018-03-20T02:54:34.424Z,19.00
2018-03-20T02:57:01.983Z,13.27
2018-03-20T02:59:28.879Z,13.50
2018-03-20T03:01:55.715Z,12.73
2018-03-20T03:04:22.643Z,14.13
2018-03-20T03:06:50.175Z,13.15
2018-03-20T03:09:17.011Z,13.90
2018-03-20T03:11:44.865Z,13.55
2018-03-20T03:14:11.704Z,13.43
2018-03-20T03:16:38.603Z,13.62
2018-03-20T03:19:05.454Z,13.18
2018-03-20T03:21:34.485Z,15.65
2018-03-20T03:24:01.323Z,15.82
2018-03-20T03:26:28.860Z,13.00
2018-03-20T03:28:56.401Z,13.68
2018-03-20T03:31:23.842Z,14.50
2018-03-20T03:33:52.496Z,12.27
2018-03-20T03:36:20.903Z,10.05
2018-03-20T03:38:53.025Z,11.80
2018-03-20T03:41:20.699Z,17.08
2018-03-20T03:43:47.555Z,10.90
2018-03-20T03:46:15.445Z,15.50
2018-03-20T03:48:42.257Z,13.65
2018-03-20T03:51:09.103Z,13.30
2018-03-20T03:53:36.877Z,11.02
2018-03-20T03:56:04.275Z,19.48
2018-03-20T03:58:31.968Z,17.80
2018-03-20T04:00:58.904Z,11.68
2018-03-20T04:03:26.598Z,15.60
2018-03-20T04:05:55.100Z,11.85
2018-03-20T04:08:21.995Z,13.55
2018-03-20T04:10:48.948Z,14.15
2018-03-20T04:13:15.867Z,18.37
2018-03-20T04:15:42.751Z,14.23
2018-03-20T04:18:09.807Z,18.73
2018-03-20T04:20:36.652Z,16.15
2018-03-20T04:23:04.295Z,18.77
2018-03-20T04:25:31.195Z,14.10
2018-03-20T04:27:58.680Z,16.45
2018-03-20T04:30:25.537Z,15.90
2018-03-20T04:32:52.314Z,14.35
2018-03-20T04:35:19.635Z,16.92
2018-03-20T04:37:46.529Z,14.15
2018-03-20T04:40:13.964Z,14.63
2018-03-20T04:42:40.805Z,12.80
2018-03-20T04:45:08.399Z,13.10
2018-03-20T04:47:36.142Z,18.70
2018-03-20T04:50:03.134Z,18.25
2018-03-20T04:52:29.978Z,14.87
2018-03-20T04:54:56.796Z,19.30
2018-03-20T04:57:24.388Z,12.95
2018-03-20T04:59:51.205Z,15.95
2018-03-20T05:02:18.091Z,17.60
2018-03-20T05:04:45.316Z,20.00
2018-03-20T05:07:13.275Z,22.27
2018-03-20T05:09:40.103Z,21.95
2018-03-20T05:12:06.909Z,20.10
2018-03-20T05:14:34.489Z,16.80
2018-03-20T05:17:01.321Z,19.05
2018-03-20T05:22:49.822Z,18.52
2018-03-20T05:25:16.685Z,21.65
2018-03-20T05:27:44.125Z,19.58
2018-03-20T05:30:11.762Z,17.83
2018-03-20T05:32:38.735Z,23.92
2018-03-20T05:35:05.895Z,21.92
2018-03-20T05:37:32.768Z,23.50
2018-03-20T05:40:00.130Z,21.87
2018-03-20T05:42:26.946Z,22.30
2018-03-20T05:44:53.841Z,24.00
2018-03-20T05:50:44.117Z,23.05
2018-03-20T05:53:11.809Z,27.23
2018-03-20T05:55:38.688Z,24.75
2018-03-20T05:58:05.546Z,30.45
2018-03-20T06:00:32.392Z,32.10
2018-03-20T06:03:00.713Z,28.52
2018-03-20T06:05:28.372Z,34.30
2018-03-20T06:07:55.242Z,34.30
2018-03-20T06:10:22.778Z,31.50
2018-03-20T06:12:51.076Z,38.05
2018-03-20T06:15:18.009Z,32.83
2018-03-20T06:17:44.980Z,36.20
2018-03-20T06:20:12.539Z,33.67
2018-03-20T06:22:39.498Z,31.98
2018-03-20T06:25:06.399Z,38.38
2018-03-20T06:27:37.149Z,32.38
2018-03-20T07:14:22.888Z,46.70
2018-03-20T07:16:53.369Z,53.40
2018-03-20T07:19:20.962Z,43.00
2018-03-20T07:21:50.565Z,56.63
2018-03-20T07:24:18.370Z,50.28
2018-03-20T07:26:49.803Z,39.47
2018-03-20T07:29:18.222Z,54.65
2018-03-20T07:31:45.652Z,62.20
2018-03-20T07:34:23.384Z,57.25
2018-03-20T07:36:50.285Z,48.10
2018-03-20T07:39:18.603Z,65.72
2018-03-20T07:41:46.145Z,55.88
2018-03-20T07:44:13.141Z,70.78
2018-03-20T07:46:42.276Z,71.62
2018-03-20T07:49:11.213Z,73.72
2018-03-20T07:51:42.285Z,57.67
2018-03-20T07:54:10.913Z,60.72
2018-03-20T07:56:42.041Z,61.85
2018-03-20T07:59:16.651Z,63.72
2018-03-20T08:01:43.629Z,55.75
2018-03-20T08:04:13.214Z,61.60
2018-03-20T08:06:56.165Z,51.67
2018-03-20T08:09:24.441Z,39.60
2018-03-20T08:11:52.181Z,43.10
2018-03-20T08:14:43.276Z,40.10
2018-03-20T08:17:13.014Z,30.90
2018-03-20T08:19:40.700Z,39.75
2018-03-20T08:22:11.250Z,28.90
2018-03-20T08:24:40.308Z,28.35
2018-03-20T08:27:09.389Z,39.17
2018-03-20T08:29:37.132Z,39.65
2018-03-20T08:32:05.634Z,28.75
2018-03-20T08:34:33.302Z,21.67
2018-03-20T08:37:03.759Z,28.67
2018-03-20T08:39:30.778Z,41.92
2018-03-20T08:42:45.328Z,27.85
2018-03-20T08:45:16.279Z,21.27
2018-03-20T08:47:50.711Z,34.15
2018-03-20T08:50:20.267Z,18.27
2018-03-20T08:52:48.273Z,18.02
2018-03-20T08:55:25.794Z,13.32
2018-03-20T08:57:54.225Z,17.65
2018-03-20T09:00:24.655Z,20.35
2018-03-20T09:02:51.694Z,20.92
2018-03-20T09:05:21.286Z,15.85
2018-03-20T09:07:48.191Z,12.90
2018-03-20T09:10:42.523Z,15.02
2018-03-20T09:13:10.149Z,12.27
2018-03-20T09:15:42.837Z,12.20
2018-03-20T09:18:13.953Z,11.38
2018-03-20T09:20:44.484Z,8.98
2018-03-20T09:23:26.451Z,12.93
2018-03-20T09:25:53.369Z,9.27
2018-03-20T09:28:22.992Z,13.07
2018-03-20T09:30:49.955Z,10.65
2018-03-20T09:35:08.305Z,7.43
2018-03-20T09:37:36.102Z,10.13
2018-03-20T09:40:04.710Z,8.38
2018-03-20T09:42:43.596Z,9.68
2018-03-20T09:47:57.944Z,11.43
2018-03-20T09:53:48.761Z,5.30
2018-03-20T09:56:16.401Z,6.95
2018-03-20T09:58:44.561Z,6.95
2018-03-20T10:01:12.081Z,7.18
2018-03-20T10:03:43.571Z,4.60
2018-03-20T10:06:11.629Z,4.40
2018-03-20T10:08:40.536Z,5.05
2018-03-20T10:11:12.134Z,8.27
2018-03-20T10:13:39.909Z,9.43
2018-03-20T10:16:11.679Z,6.05
2018-03-20T10:18:42.657Z,4.15
2018-03-20T10:21:13.277Z,5.23
2018-03-20T10:23:40.218Z,5.55
2018-03-20T10:26:08.811Z,3.60
2018-03-20T10:28:36.217Z,4.70
2018-03-20T10:31:05.093Z,2.00
2018-03-20T10:33:31.937Z,2.07
2018-03-20T10:35:59.456Z,3.30
2018-03-20T10:38:27.619Z,5.03
2018-03-20T10:40:55.348Z,3.10
2018-03-20T10:43:24.650Z,3.20
2018-03-20T10:46:08.436Z,5.00
2018-03-20T10:48:36.908Z,5.83
2018-03-20T10:51:08.546Z,3.80
2018-03-20T10:53:35.596Z,6.00
2018-03-20T10:56:05.116Z,2.83
2018-03-20T10:58:32.596Z,3.77
2018-03-20T11:01:06.303Z,2.20
2018-03-20T11:03:34.027Z,3.77
2018-03-20T11:06:03.823Z,1.60
2018-03-20T11:08:31.417Z,3.10
2018-03-20T11:11:01.383Z,3.63
2018-03-20T11:13:29.628Z,3.87
2018-03-20T11:15:58.643Z,3.57
2018-03-20T11:18:27.149Z,4.20
2018-03-20T11:20:54.748Z,3.67
2018-03-20T11:26:04.346Z,3.23
2018-03-20T11:28:33.441Z,2.30
2018-03-20T11:31:02.107Z,2.23
2018-03-20T11:33:29.074Z,2.60
2018-03-20T11:35:56.214Z,3.70
2018-03-20T11:38:24.938Z,2.77
2018-03-20T11:40:55.580Z,4.83
2018-03-20T11:43:22.530Z,2.10
2018-03-20T11:45:50.914Z,6.70
2018-03-20T11:48:18.854Z,3.57
2018-03-20T11:50:47.271Z,2.50
2018-03-20T11:53:16.310Z,4.50
2018-03-20T11:55:44.333Z,2.30
2018-03-20T11:58:14.216Z,1.97
2018-03-20T12:00:42.129Z,2.80
2018-03-20T12:03:16.074Z,1.30
2018-03-20T12:05:43.801Z,1.80
2018-03-20T12:08:28.863Z,1.70
2018-03-20T12:10:57.458Z,2.30
2018-03-20T12:13:24.390Z,3.90
2018-03-20T12:15:52.034Z,3.20
2018-03-20T12:18:19.122Z,2.60
2018-03-20T12:20:46.792Z,2.70
2018-03-20T12:23:15.274Z,2.43
2018-03-20T12:25:42.288Z,2.70
2018-03-20T12:28:10.382Z,2.67
2018-03-20T12:30:40.426Z,4.73
2018-03-20T12:33:08.562Z,2.03
2018-03-20T12:35:36.630Z,1.50
2018-03-20T12:38:12.454Z,2.00
2018-03-20T12:40:43.026Z,4.50
2018-03-20T12:43:10.931Z,3.07
2018-03-20T12:45:37.764Z,2.23
2018-03-20T12:48:05.081Z,2.13
2018-03-20T12:50:31.963Z,5.50
2018-03-20T12:53:00.874Z,4.80
2018-03-20T12:55:39.659Z,1.87
2018-03-20T12:58:07.732Z,1.30
2018-03-20T13:00:35.647Z,2.47
2018-03-20T13:03:07.827Z,1.57
2018-03-20T13:05:39.756Z,1.87
2018-03-20T13:08:07.734Z,2.80
2018-03-20T13:10:34.828Z,2.47
2018-03-20T13:13:07.265Z,2.10
2018-03-20T13:15:34.970Z,4.33
2018-03-20T13:18:05.149Z,2.70
2018-03-20T13:20:32.993Z,2.10
2018-03-20T13:23:08.649Z,2.23
2018-03-20T13:25:37.873Z,1.27
2018-03-20T13:28:09.179Z,2.20
2018-03-20T13:30:38.683Z,2.40
2018-03-20T13:33:06.178Z,1.20
2018-03-20T13:35:38.254Z,0.90
2018-03-20T13:38:19.193Z,1.10
2018-03-20T13:40:48.794Z,4.10
2018-03-20T13:43:18.431Z,1.47
2018-03-20T13:45:47.095Z,2.13
2018-03-20T13:50:54.202Z,1.50
2018-03-20T13:53:26.956Z,2.13
2018-03-20T13:56:07.573Z,1.10
2018-03-20T13:58:54.459Z,1.70
2018-03-20T14:01:27.422Z,2.23
2018-03-20T14:03:57.546Z,0.70
2018-03-20T14:06:27.103Z,1.80
2018-03-20T14:09:03.719Z,1.73
2018-03-20T14:11:36.910Z,2.30
2018-03-20T14:14:10.058Z,2.60
2018-03-20T14:16:46.105Z,1.23
2018-03-20T14:19:18.434Z,2.67
2018-03-20T14:21:48.118Z,1.83
2018-03-20T14:24:16.739Z,1.40
2018-03-20T20:59:27.214Z,7.22
2018-03-20T21:01:55.583Z,6.53
2018-03-20T21:04:23.804Z,8.48
2018-03-20T21:06:52.638Z,6.00
2018-03-20T21:09:21.024Z,4.90
2018-03-20T21:11:49.306Z,8.02
2018-03-20T21:14:17.457Z,3.30
2018-03-20T21:16:45.885Z,6.03
2018-03-20T21:19:14.323Z,4.07
2018-03-20T21:21:43.995Z,6.75
2018-03-20T21:24:12.491Z,5.72
2018-03-20T21:26:39.337Z,3.72
2018-03-20T21:29:11.866Z,7.00
2018-03-20T21:31:40.559Z,6.22
2018-03-20T21:34:07.585Z,5.25
2018-03-20T21:36:34.951Z,4.93
2018-03-20T21:39:04.977Z,7.18
2018-03-20T21:41:31.886Z,4.57
2018-03-20T21:43:58.846Z,9.75
2018-03-20T21:46:25.725Z,4.62
2018-03-20T21:48:53.540Z,9.90
2018-03-20T21:51:21.091Z,4.70
2018-03-20T21:53:49.564Z,4.87
2018-03-20T21:56:16.354Z,6.65
2018-03-20T21:58:43.141Z,6.68
2018-03-20T22:01:10.893Z,5.10
2018-03-20T22:03:39.621Z,4.15
2018-03-20T22:06:06.436Z,5.40
2018-03-20T22:08:33.096Z,7.45
2018-03-20T22:11:00.249Z,5.00
2018-03-20T22:13:27.051Z,4.60
2018-03-20T22:15:53.799Z,3.95
2018-03-20T22:18:20.594Z,4.00
2018-03-20T22:20:47.927Z,5.87
2018-03-20T22:23:15.012Z,5.20
2018-03-20T22:25:42.466Z,4.65
2018-03-20T22:28:09.260Z,5.07
2018-03-20T22:30:35.991Z,3.85
2018-03-20T22:33:02.968Z,6.15
2018-03-20T22:35:30.432Z,5.05
2018-03-20T22:37:59.960Z,4.30
2018-03-20T22:40:26.697Z,4.85
2018-03-20T22:42:53.438Z,6.95
2018-03-20T22:45:20.175Z,4.62
2018-03-20T22:47:46.923Z,6.35
2018-03-20T22:50:13.697Z,6.82
2018-03-20T22:52:42.526Z,4.20
2018-03-20T22:55:09.333Z,7.80
2018-03-20T22:57:36.094Z,5.90
2018-03-20T23:00:02.881Z,7.62
2018-03-20T23:02:29.676Z,6.37
2018-03-20T23:04:56.411Z,4.15
2018-03-20T23:07:24.214Z,4.18
2018-03-20T23:09:50.894Z,4.85
2018-03-20T23:12:17.861Z,4.07
2018-03-20T23:14:45.362Z,4.37
2018-03-20T23:17:12.124Z,7.55
2018-03-20T23:19:38.904Z,6.90
2018-03-20T23:22:06.333Z,4.05
2018-03-20T23:24:33.146Z,4.70
2018-03-20T23:27:00.862Z,6.65
2018-03-20T23:29:27.641Z,5.97
2018-03-20T23:31:54.291Z,6.18
2018-03-20T23:34:21.620Z,6.03
2018-03-20T23:36:49.463Z,6.37
2018-03-20T23:39:16.771Z,5.25
2018-03-20T23:41:44.176Z,5.03
2018-03-20T23:44:11.637Z,8.90
2018-03-20T23:46:39.146Z,5.40
2018-03-20T23:49:05.828Z,4.72
2018-03-20T23:51:32.602Z,5.50
2018-03-20T23:53:59.360Z,5.75
2018-03-20T23:56:29.035Z,5.50
2018-03-20T23:58:55.831Z,5.18
